Time;durP1;ratioP1;P1;durP2;ratioP2;P2;SDS_P1;SDS_P2;PMS_P1;PMS_P2;Temp;Humidity;BMP_temperature;BMP_pressure;BME280_temperature;BME280_humidity;BME280_pressure;Samples;Min_cycle;Max_cycle;Signal;HPM_P1;HPM_P2
2022/04/05 00:00:36;;;;;;;20.98;7.75;;;11.20;99.90;;;;;;4990998;28;20211;-70
2022/04/05 00:03:01;;;;;;;20.75;7.93;;;11.20;99.90;;;;;;5007160;28;20108;-68
2022/04/05 00:05:27;;;;;;;19.75;7.20;;;11.20;99.90;;;;;;5023473;28;20022;-68
2022/04/05 00:07:54;;;;;;;21.55;8.25;;;11.20;99.90;;;;;;5024563;28;20379;-68
2022/04/05 00:10:21;;;;;;;25.48;7.60;;;11.20;99.90;;;;;;5006597;28;20021;-68
2022/04/05 00:12:47;;;;;;;26.35;8.23;;;11.20;99.90;;;;;;5022941;28;20375;-68
2022/04/05 00:15:12;;;;;;;22.65;7.57;;;11.20;99.90;;;;;;5006700;28;20026;-69
2022/04/05 00:17:38;;;;;;;25.27;7.22;;;11.20;99.90;;;;;;5023124;28;20021;-69
2022/04/05 00:20:05;;;;;;;23.08;7.70;;;11.20;99.90;;;;;;5022926;28;20028;-69
2022/04/05 00:22:30;;;;;;;21.30;7.47;;;11.20;99.90;;;;;;5022695;28;20026;-68
2022/04/05 00:24:56;;;;;;;19.63;7.78;;;11.20;99.90;;;;;;5023255;28;20028;-69
2022/04/05 00:27:22;;;;;;;25.15;7.88;;;11.10;99.90;;;;;;5022860;28;20309;-69
2022/04/05 00:29:48;;;;;;;25.60;7.82;;;11.10;99.90;;;;;;5006465;28;20018;-69
2022/04/05 00:32:13;;;;;;;20.58;8.10;;;11.10;99.90;;;;;;5005343;28;20490;-70
2022/04/05 00:34:40;;;;;;;18.48;7.28;;;11.10;99.90;;;;;;5019611;28;20389;-69
2022/04/05 00:37:05;;;;;;;23.65;8.70;;;11.10;99.90;;;;;;5003273;28;20293;-69
2022/04/05 00:39:31;;;;;;;21.90;8.05;;;11.00;99.90;;;;;;5004226;28;20018;-69
2022/04/05 00:41:57;;;;;;;23.98;8.32;;;11.00;99.90;;;;;;5019145;28;20309;-69
2022/04/05 00:44:24;;;;;;;22.67;7.38;;;11.00;99.90;;;;;;5019650;28;20018;-69
2022/04/05 00:46:51;;;;;;;25.55;7.80;;;11.00;99.90;;;;;;5011712;28;20037;-70
2022/04/05 00:49:26;;;;;;;26.13;7.78;;;11.00;99.90;;;;;;5006290;28;20033;-70
2022/04/05 00:51:52;;;;;;;19.63;7.70;;;11.00;99.90;;;;;;5006914;28;20398;-70
2022/04/05 00:54:19;;;;;;;21.35;7.97;;;11.00;99.90;;;;;;5006407;28;20022;-70
2022/04/05 00:56:46;;;;;;;22.35;8.45;;;11.00;99.90;;;;;;5023904;28;20100;-70
2022/04/05 00:59:15;;;;;;;19.10;7.57;;;11.00;99.90;;;;;;4990075;28;20022;-69
2022/04/05 01:01:42;;;;;;;26.80;8.32;;;11.00;99.90;;;;;;5022901;28;20026;-70
2022/04/05 01:04:09;;;;;;;20.08;7.95;;;11.00;99.90;;;;;;5006040;28;20275;-71
2022/04/05 01:06:39;;;;;;;23.05;7.07;;;11.00;99.90;;;;;;5006523;28;20025;-70
2022/04/05 01:09:07;;;;;;;24.15;7.35;;;11.00;99.90;;;;;;5022360;28;20117;-69
2022/04/05 01:11:33;;;;;;;20.38;7.50;;;11.00;99.90;;;;;;5005978;28;20022;-72
2022/04/05 01:13:59;;;;;;;23.30;7.75;;;11.00;99.90;;;;;;5022362;28;20072;-71
2022/04/05 01:16:25;;;;;;;18.20;7.80;;;10.90;99.90;;;;;;4990008;28;20026;-70
2022/04/05 01:18:51;;;;;;;30.23;8.00;;;10.90;99.90;;;;;;5022575;28;20169;-68
2022/04/05 01:21:17;;;;;;;25.00;7.10;;;10.90;99.90;;;;;;5022046;28;20069;-70
2022/04/05 01:24:06;;;;;;;20.88;7.22;;;10.80;99.90;;;;;;5022519;28;20072;-69
2022/04/05 01:26:51;;;;;;;24.35;7.50;;;10.80;99.90;;;;;;5009165;28;20063;-69
2022/04/05 01:29:19;;;;;;;25.52;7.88;;;10.80;99.90;;;;;;5006037;28;20057;-68
2022/04/05 01:31:47;;;;;;;27.23;8.68;;;10.80;99.90;;;;;;5005985;28;20022;-70
2022/04/05 01:34:15;;;;;;;21.92;7.75;;;10.80;99.90;;;;;;5001199;28;20081;-68
2022/04/05 01:36:43;;;;;;;24.02;8.50;;;10.80;99.90;;;;;;4986490;28;20297;-71
2022/04/05 01:39:10;;;;;;;22.10;7.38;;;10.80;99.90;;;;;;5003932;28;20018;-70
2022/04/05 01:41:36;;;;;;;21.23;8.02;;;10.80;99.90;;;;;;5002280;28;20290;-69
2022/04/05 01:44:05;;;;;;;19.23;7.28;;;10.80;99.90;;;;;;5002887;28;20193;-69
2022/04/05 01:46:31;;;;;;;20.65;7.70;;;10.80;99.90;;;;;;4991802;28;20037;-68
2022/04/05 01:48:57;;;;;;;24.85;8.27;;;10.70;99.90;;;;;;5005852;28;20046;-70
2022/04/05 01:51:23;;;;;;;23.13;7.47;;;10.70;99.90;;;;;;5005679;28;20089;-69
2022/04/05 01:53:48;;;;;;;18.17;6.93;;;10.70;99.90;;;;;;5022339;28;20060;-69
2022/04/05 01:56:14;;;;;;;22.58;6.97;;;10.70;99.90;;;;;;5022018;28;20056;-69
2022/04/05 01:58:40;;;;;;;19.83;6.30;;;10.70;99.90;;;;;;4990434;28;20018;-69
2022/04/05 02:01:05;;;;;;;24.27;6.68;;;10.60;99.90;;;;;;5025748;28;20025;-69
2022/04/05 02:03:31;;;;;;;26.33;6.25;;;10.60;99.90;;;;;;5025636;28;20022;-68
2022/04/05 02:05:57;;;;;;;24.20;6.10;;;10.60;99.90;;;;;;5025637;28;20030;-69
2022/04/05 02:08:23;;;;;;;21.67;6.25;;;10.60;99.90;;;;;;5025156;28;20033;-70
2022/04/05 02:10:49;;;;;;;27.90;7.55;;;10.60;99.90;;;;;;5025414;28;20026;-69
2022/04/05 02:13:15;;;;;;;20.83;6.57;;;10.50;99.90;;;;;;5008600;28;20022;-69
2022/04/05 02:15:40;;;;;;;18.10;6.13;;;10.50;99.90;;;;;;5008891;28;20029;-69
2022/04/05 02:18:06;;;;;;;21.75;7.22;;;10.50;99.90;;;;;;5009002;28;20063;-69
2022/04/05 02:20:33;;;;;;;21.00;7.65;;;10.50;99.90;;;;;;4992558;28;20224;-69
2022/04/05 02:22:59;;;;;;;26.88;7.45;;;10.50;99.90;;;;;;5026359;28;20021;-70
2022/04/05 02:25:26;;;;;;;31.15;8.48;;;10.50;99.90;;;;;;5026666;28;20311;-71
2022/04/05 02:27:52;;;;;;;22.92;7.93;;;10.50;99.90;;;;;;5009174;28;20030;-70
2022/04/05 02:30:17;;;;;;;31.58;8.82;;;10.50;99.90;;;;;;5026212;28;20060;-69
2022/04/05 02:32:43;;;;;;;24.63;8.25;;;10.40;99.90;;;;;;4992299;28;20194;-70
2022/04/05 02:35:11;;;;;;;27.23;9.35;;;10.50;99.90;;;;;;5024248;28;20026;-69
2022/04/05 02:37:37;;;;;;;23.30;9.63;;;10.50;99.90;;;;;;5025172;28;20068;-70
2022/04/05 02:40:03;;;;;;;30.08;8.93;;;10.50;99.90;;;;;;5025882;28;20360;-69
2022/04/05 02:42:30;;;;;;;23.27;8.85;;;10.50;99.90;;;;;;5007719;28;20033;-70
2022/04/05 02:44:56;;;;;;;29.80;8.52;;;10.50;99.90;;;;;;5024780;28;20022;-70
2022/04/05 02:47:22;;;;;;;27.50;8.95;;;10.50;99.90;;;;;;5021156;28;20249;-69
2022/04/05 02:49:48;;;;;;;30.00;8.65;;;10.50;99.90;;;;;;5021548;28;20026;-71
2022/04/05 02:52:15;;;;;;;29.83;9.50;;;10.60;99.90;;;;;;4988927;28;20309;-70
2022/04/05 02:54:42;;;;;;;28.52;8.30;;;10.60;99.90;;;;;;4989312;28;20072;-69
2022/04/05 02:57:08;;;;;;;34.28;9.15;;;10.60;99.90;;;;;;5005909;28;20309;-70
2022/04/05 02:59:34;;;;;;;25.23;8.10;;;10.60;99.90;;;;;;5005053;28;20022;-71
2022/04/05 03:02:00;;;;;;;23.65;8.25;;;10.60;99.90;;;;;;5005991;28;20094;-69
2022/04/05 03:04:26;;;;;;;24.58;8.05;;;10.60;99.90;;;;;;5004675;28;20324;-70
2022/04/05 03:06:51;;;;;;;28.40;7.47;;;10.60;99.90;;;;;;4988622;28;20061;-69
2022/04/05 03:09:17;;;;;;;25.15;7.65;;;10.60;99.90;;;;;;5005676;28;20022;-70
2022/04/05 03:11:43;;;;;;;30.55;9.20;;;10.60;99.90;;;;;;4988059;28;20034;-69
2022/04/05 03:14:10;;;;;;;24.23;7.90;;;10.60;99.90;;;;;;5004472;28;20351;-69
2022/04/05 03:16:37;;;;;;;25.98;9.02;;;10.60;99.90;;;;;;5004958;28;20018;-70
2022/04/05 03:19:05;;;;;;;25.35;8.07;;;10.60;99.90;;;;;;5004639;28;20053;-69
2022/04/05 03:21:32;;;;;;;24.75;8.02;;;10.60;99.90;;;;;;5020771;28;20336;-69
2022/04/05 03:23:57;;;;;;;26.77;8.68;;;10.50;99.90;;;;;;5004302;28;20029;-69
2022/04/05 03:26:23;;;;;;;19.30;7.63;;;10.50;99.90;;;;;;4987967;28;20022;-69
2022/04/05 03:28:50;;;;;;;32.63;8.50;;;10.50;99.90;;;;;;5005472;28;20030;-69
2022/04/05 03:31:16;;;;;;;27.23;8.80;;;10.50;99.90;;;;;;5004537;28;20030;-68
2022/04/05 03:33:41;;;;;;;28.02;9.27;;;10.50;99.90;;;;;;4989589;28;20053;-69
2022/04/05 03:36:07;;;;;;;23.67;8.38;;;10.50;99.90;;;;;;5022398;28;20029;-68
2022/04/05 03:38:33;;;;;;;29.83;9.43;;;10.50;99.90;;;;;;5007649;28;20037;-68
2022/04/05 03:40:58;;;;;;;23.38;8.70;;;10.50;99.90;;;;;;5023843;28;20073;-68
2022/04/05 03:43:24;;;;;;;19.42;9.02;;;10.50;99.90;;;;;;5023372;28;20025;-68
2022/04/05 03:45:50;;;;;;;24.77;9.07;;;10.50;99.90;;;;;;5007421;28;20018;-69
2022/04/05 03:48:16;;;;;;;30.38;9.32;;;10.50;99.90;;;;;;4987336;28;20054;-69
2022/04/05 03:50:42;;;;;;;25.75;8.60;;;10.50;99.90;;;;;;5020340;28;20033;-69
2022/04/05 03:53:08;;;;;;;35.88;10.07;;;10.50;99.90;;;;;;5020129;28;20141;-70
2022/04/05 03:55:34;;;;;;;29.98;9.48;;;10.50;99.90;;;;;;5004054;28;20209;-69
2022/04/05 03:58:00;;;;;;;30.38;9.63;;;10.60;99.90;;;;;;5004024;28;20065;-69
2022/04/05 04:00:26;;;;;;;35.58;10.93;;;10.60;99.90;;;;;;5005070;28;20014;-70
2022/04/05 04:02:52;;;;;;;24.33;9.43;;;10.50;99.90;;;;;;5003676;28;20336;-70
2022/04/05 04:05:20;;;;;;;24.30;10.18;;;10.50;99.90;;;;;;4987476;28;20022;-69
2022/04/05 04:07:48;;;;;;;29.63;10.40;;;10.60;99.90;;;;;;5020165;28;20109;-70
2022/04/05 04:10:14;;;;;;;30.17;11.23;;;10.60;99.90;;;;;;5003596;28;20022;-69
2022/04/05 04:12:40;;;;;;;38.90;11.13;;;10.60;99.90;;;;;;5003013;28;20302;-69
2022/04/05 04:15:07;;;;;;;34.10;10.88;;;10.60;99.90;;;;;;4987423;28;20026;-69
2022/04/05 04:17:33;;;;;;;33.80;10.20;;;10.60;99.90;;;;;;5003770;28;20069;-69
2022/04/05 04:19:59;;;;;;;41.05;11.45;;;10.70;99.90;;;;;;5004735;28;20301;-70
2022/04/05 04:22:26;;;;;;;38.58;11.13;;;10.60;99.90;;;;;;4986830;28;20033;-69
2022/04/05 04:24:53;;;;;;;30.55;10.98;;;10.60;99.90;;;;;;5003330;28;20034;-69
2022/04/05 04:27:19;;;;;;;25.92;9.95;;;10.60;99.90;;;;;;4987376;28;20050;-69
2022/04/05 04:29:44;;;;;;;36.42;10.43;;;10.60;99.90;;;;;;5003143;28;20033;-69
2022/04/05 04:32:10;;;;;;;31.30;9.77;;;10.50;99.90;;;;;;5019411;28;20037;-70
2022/04/05 04:34:36;;;;;;;33.40;10.35;;;10.50;99.90;;;;;;5004201;28;20018;-70
2022/04/05 04:37:04;;;;;;;29.25;10.13;;;10.50;99.90;;;;;;5001750;28;20027;-70
2022/04/05 04:39:29;;;;;;;25.52;9.73;;;10.50;99.90;;;;;;5019617;28;20036;-69
2022/04/05 04:41:57;;;;;;;30.23;11.40;;;10.50;99.90;;;;;;5002873;28;20049;-70
2022/04/05 04:44:24;;;;;;;37.03;10.90;;;10.60;99.90;;;;;;5002821;28;20038;-69
2022/04/05 04:46:50;;;;;;;26.65;9.90;;;10.60;99.90;;;;;;5027180;28;20025;-69
2022/04/05 04:49:15;;;;;;;28.70;9.90;;;10.60;99.90;;;;;;5022224;28;20049;-69
2022/04/05 04:51:41;;;;;;;34.97;10.05;;;10.60;99.90;;;;;;5022299;28;20223;-69
2022/04/05 04:54:07;;;;;;;26.38;10.07;;;10.60;99.90;;;;;;5006239;28;20029;-67
2022/04/05 04:56:32;;;;;;;27.17;10.57;;;10.60;99.90;;;;;;5006047;28;20029;-68
2022/04/05 04:58:58;;;;;;;29.90;10.63;;;10.60;99.90;;;;;;5006541;28;20021;-68
2022/04/05 05:01:24;;;;;;;37.08;11.20;;;10.60;99.90;;;;;;5005939;28;20316;-69
2022/04/05 05:03:49;;;;;;;29.35;9.55;;;10.60;99.90;;;;;;5006144;28;20017;-68
2022/04/05 05:06:15;;;;;;;24.85;10.23;;;10.60;99.90;;;;;;5006117;28;20026;-68
2022/04/05 05:08:41;;;;;;;31.42;8.65;;;10.50;99.90;;;;;;5023681;28;20097;-68
2022/04/05 05:11:06;;;;;;;24.67;9.10;;;10.60;99.90;;;;;;5022377;28;20033;-70
2022/04/05 05:13:32;;;;;;;26.50;8.93;;;10.50;99.90;;;;;;5023262;28;20010;-68
2022/04/05 05:15:58;;;;;;;31.13;9.35;;;10.50;99.90;;;;;;5006096;28;20026;-69
2022/04/05 05:18:24;;;;;;;30.08;8.90;;;10.60;99.90;;;;;;5023773;28;20068;-68
2022/04/05 05:20:50;;;;;;;30.17;8.45;;;10.50;99.90;;;;;;5005765;28;20093;-70
2022/04/05 05:23:15;;;;;;;28.25;8.48;;;10.50;99.90;;;;;;5006070;28;20030;-71
2022/04/05 05:25:41;;;;;;;29.85;9.85;;;10.50;99.90;;;;;;5022313;28;20040;-69
2022/04/05 05:28:07;;;;;;;32.53;9.45;;;10.50;99.90;;;;;;5005928;28;20029;-70
2022/04/05 05:30:34;;;;;;;23.77;8.15;;;10.50;99.90;;;;;;5022380;28;20017;-70
2022/04/05 05:32:59;;;;;;;34.22;9.20;;;10.40;99.90;;;;;;5022296;28;20032;-70
2022/04/05 05:35:25;;;;;;;27.38;8.45;;;10.40;99.90;;;;;;5010005;28;20044;-68
2022/04/05 05:37:51;;;;;;;25.13;9.70;;;10.40;99.90;;;;;;5004542;28;20029;-69
2022/04/05 05:40:18;;;;;;;25.10;8.48;;;10.30;99.90;;;;;;5006308;28;20033;-70
2022/04/05 05:42:57;;;;;;;33.97;10.48;;;10.30;99.90;;;;;;5006076;28;20014;-69
2022/04/05 05:45:24;;;;;;;30.48;9.63;;;10.30;99.90;;;;;;4989977;28;20026;-70
2022/04/05 05:47:50;;;;;;;31.38;10.02;;;10.30;99.90;;;;;;5022431;28;20045;-71
2022/04/05 05:50:16;;;;;;;36.30;10.13;;;10.30;99.90;;;;;;5009623;28;20049;-69
2022/04/05 05:52:43;;;;;;;35.00;10.77;;;10.30;99.90;;;;;;5008818;28;20050;-69
2022/04/05 05:55:11;;;;;;;27.58;9.63;;;10.30;99.90;;;;;;5026583;28;20026;-68
2022/04/05 05:57:37;;;;;;;25.83;9.55;;;10.30;99.90;;;;;;5009190;28;20022;-70
2022/04/05 06:00:06;;;;;;;29.90;10.15;;;10.30;99.90;;;;;;5009261;28;20022;-70
2022/04/05 06:02:35;;;;;;;26.88;10.02;;;10.30;99.90;;;;;;4993012;28;20018;-69
2022/04/05 06:05:01;;;;;;;30.88;10.07;;;10.30;99.90;;;;;;5026552;28;20140;-70
2022/04/05 06:07:26;;;;;;;32.50;10.88;;;10.40;99.90;;;;;;5025476;28;20022;-69
2022/04/05 06:09:52;;;;;;;32.83;10.65;;;10.40;99.90;;;;;;4992618;28;20105;-69
2022/04/05 06:12:18;;;;;;;30.20;12.50;;;10.40;99.90;;;;;;4992324;28;20049;-68
2022/04/05 06:14:44;;;;;;;32.85;11.88;;;10.50;99.90;;;;;;5025337;28;20034;-68
2022/04/05 06:17:09;;;;;;;34.15;10.85;;;10.50;99.90;;;;;;5009107;28;20089;-69
2022/04/05 06:19:35;;;;;;;32.75;12.40;;;10.50;99.90;;;;;;5025408;28;20313;-69
2022/04/05 06:22:01;;;;;;;33.15;11.52;;;10.50;99.90;;;;;;5009005;28;20022;-69
2022/04/05 06:24:26;;;;;;;30.58;10.50;;;10.60;99.90;;;;;;5008581;28;20017;-70
2022/04/05 06:26:52;;;;;;;31.02;10.10;;;10.60;99.90;;;;;;5024925;28;20052;-68
2022/04/05 06:29:18;;;;;;;31.65;10.68;;;10.60;99.90;;;;;;5024822;28;20080;-69
2022/04/05 06:31:43;;;;;;;36.58;10.80;;;10.60;99.90;;;;;;4992373;28;20022;-69
2022/04/05 06:34:09;;;;;;;37.08;11.43;;;10.60;99.90;;;;;;5021769;28;20023;-70
2022/04/05 06:36:35;;;;;;;26.20;9.38;;;10.70;99.90;;;;;;5005343;28;20304;-69
2022/04/05 06:39:02;;;;;;;29.73;9.88;;;10.70;99.90;;;;;;5003675;28;20030;-70
2022/04/05 06:41:27;;;;;;;37.05;11.45;;;10.70;99.90;;;;;;5021445;28;20364;-69
2022/04/05 06:43:53;;;;;;;30.13;9.20;;;10.70;99.90;;;;;;5021066;28;20073;-69
2022/04/05 06:46:19;;;;;;;25.40;9.88;;;10.80;99.90;;;;;;4991219;28;20026;-70
2022/04/05 06:48:45;;;;;;;38.80;10.25;;;10.80;99.90;;;;;;5024476;28;20060;-69
2022/04/05 06:51:11;;;;;;;32.88;9.10;;;10.80;99.90;;;;;;5008413;28;20303;-69
2022/04/05 06:53:36;;;;;;;29.83;8.85;;;10.90;99.90;;;;;;5024608;28;20030;-71
2022/04/05 06:56:02;;;;;;;28.88;8.13;;;10.90;99.90;;;;;;5025817;28;20053;-69
2022/04/05 06:58:28;;;;;;;27.48;9.40;;;10.90;99.90;;;;;;4989659;28;20297;-70
2022/04/05 07:00:53;;;;;;;21.73;8.45;;;10.90;99.90;;;;;;5023932;28;20216;-68
2022/04/05 07:03:19;;;;;;;36.22;7.88;;;11.00;99.90;;;;;;5019464;28;20022;-68
2022/04/05 07:05:45;;;;;;;30.73;9.40;;;11.00;99.90;;;;;;5023674;28;20532;-69
2022/04/05 07:08:11;;;;;;;28.50;9.07;;;11.00;99.90;;;;;;5024385;28;20075;-68
2022/04/05 07:10:40;;;;;;;23.08;9.18;;;11.00;99.90;;;;;;5007680;28;20017;-70
2022/04/05 07:13:08;;;;;;;29.05;9.43;;;11.00;99.90;;;;;;5023430;28;20049;-67
2022/04/05 07:15:34;;;;;;;31.48;9.30;;;11.00;99.90;;;;;;5007418;28;20108;-71
2022/04/05 07:17:59;;;;;;;27.58;9.13;;;11.00;99.90;;;;;;5023329;28;20022;-68
2022/04/05 07:20:25;;;;;;;29.55;8.50;;;11.00;99.90;;;;;;5024512;28;20244;-71
2022/04/05 07:22:51;;;;;;;31.15;7.20;;;11.10;99.90;;;;;;5038935;28;20072;-73
2022/04/05 07:25:20;;;;;;;24.00;7.40;;;11.10;99.90;;;;;;5038650;28;20049;-71
2022/04/05 07:27:47;;;;;;;24.90;5.95;;;11.10;99.90;;;;;;5005824;28;20316;-69
2022/04/05 07:30:13;;;;;;;30.48;5.82;;;11.20;99.90;;;;;;5027411;28;20014;-70
2022/04/05 07:32:42;;;;;;;34.42;5.78;;;11.20;99.90;;;;;;5006675;28;20208;-71
2022/04/05 07:35:08;;;;;;;26.67;6.18;;;11.20;99.90;;;;;;5010392;28;20336;-69
2022/04/05 07:37:35;;;;;;;30.48;6.10;;;11.30;99.90;;;;;;5022515;28;20036;-68
2022/04/05 07:40:05;;;;;;;30.83;6.32;;;11.50;99.90;;;;;;5022488;28;20016;-71
2022/04/05 07:42:32;;;;;;;32.83;5.80;;;11.50;99.90;;;;;;5006716;28;20030;-71
2022/04/05 07:44:57;;;;;;;18.67;4.93;;;11.60;99.90;;;;;;5022977;28;20034;-69
2022/04/05 07:47:23;;;;;;;32.42;5.32;;;11.70;99.90;;;;;;5022290;28;20279;-69
2022/04/05 07:49:49;;;;;;;23.30;5.15;;;11.70;99.90;;;;;;5022771;28;20025;-72
2022/04/05 07:52:15;;;;;;;22.95;4.05;;;11.80;99.90;;;;;;5022358;28;20060;-72
2022/04/05 07:54:42;;;;;;;22.20;3.55;;;11.80;99.90;;;;;;5022654;28;20048;-71
2022/04/05 07:57:10;;;;;;;28.10;4.85;;;11.80;99.90;;;;;;5022826;28;20022;-70
2022/04/05 07:59:36;;;;;;;15.32;3.55;;;11.80;99.90;;;;;;5006454;28;20355;-70
2022/04/05 08:02:03;;;;;;;24.25;3.60;;;11.80;99.90;;;;;;5007052;28;20093;-70
2022/04/05 08:04:28;;;;;;;25.20;3.88;;;11.70;99.90;;;;;;4998471;28;20025;-70
2022/04/05 08:06:54;;;;;;;23.20;3.58;;;11.70;99.90;;;;;;4989266;28;20022;-71
2022/04/05 08:09:19;;;;;;;24.90;4.45;;;11.70;99.90;;;;;;5005818;28;20029;-69
2022/04/05 08:11:45;;;;;;;22.23;4.13;;;11.70;99.90;;;;;;5005642;28;20022;-71
2022/04/05 08:14:11;;;;;;;24.02;3.65;;;11.70;99.90;;;;;;5022073;28;20093;-70
2022/04/05 08:16:38;;;;;;;16.33;3.25;;;11.70;99.90;;;;;;5005706;28;20266;-72
2022/04/05 08:19:04;;;;;;;27.83;3.58;;;11.70;99.90;;;;;;5022215;28;20033;-68
2022/04/05 08:21:31;;;;;;;19.60;3.85;;;11.80;99.90;;;;;;5005471;28;20021;-71
2022/04/05 08:23:57;;;;;;;23.45;3.25;;;11.80;99.90;;;;;;5023397;28;20042;-70
2022/04/05 08:26:22;;;;;;;32.72;4.90;;;11.70;99.90;;;;;;5006150;28;20359;-72
2022/04/05 08:28:48;;;;;;;20.23;4.15;;;11.70;99.90;;;;;;5021872;28;20060;-74
2022/04/05 08:31:16;;;;;;;20.88;3.30;;;11.80;99.90;;;;;;5022995;28;20038;-72
2022/04/05 08:33:42;;;;;;;29.25;5.32;;;11.90;99.90;;;;;;5019765;28;20044;-69
2022/04/05 08:36:08;;;;;;;21.90;4.32;;;12.00;99.90;;;;;;5002521;28;20030;-70
2022/04/05 08:38:33;;;;;;;22.20;3.92;;;12.20;99.90;;;;;;5001014;28;20022;-70
2022/04/05 08:41:04;;;;;;;30.08;4.45;;;12.30;99.90;;;;;;5002502;28;20029;-68
2022/04/05 08:43:30;;;;;;;15.07;3.42;;;12.30;99.90;;;;;;5002881;28;20057;-69
2022/04/05 08:45:59;;;;;;;13.18;3.15;;;12.40;99.90;;;;;;5003989;28;20222;-69
2022/04/05 08:48:27;;;;;;;18.98;4.30;;;12.40;99.90;;;;;;5005007;28;20248;-73
2022/04/05 08:50:54;;;;;;;14.00;2.65;;;12.40;99.90;;;;;;5021303;28;20057;-69
2022/04/05 08:53:20;;;;;;;19.50;3.03;;;12.40;99.90;;;;;;5001750;28;20026;-69
2022/04/05 08:55:46;;;;;;;16.58;3.25;;;12.30;99.90;;;;;;5009755;28;20034;-71
2022/04/05 08:58:14;;;;;;;26.98;3.35;;;12.30;99.90;;;;;;5022541;28;20128;-71
2022/04/05 09:00:40;;;;;;;31.77;4.68;;;12.30;99.90;;;;;;5016521;28;20042;-70
2022/04/05 09:03:06;;;;;;;25.92;3.60;;;12.40;99.90;;;;;;5001813;28;20364;-70
2022/04/05 09:05:42;;;;;;;17.00;3.22;;;12.50;99.90;;;;;;5003343;28;20068;-73
2022/04/05 09:08:28;;;;;;;14.25;2.83;;;12.50;99.90;;;;;;4982031;28;20034;-73
2022/04/05 09:11:10;;;;;;;18.88;3.15;;;12.50;99.90;;;;;;5011444;28;20022;-71
2022/04/05 09:13:36;;;;;;;14.20;2.25;;;12.60;99.90;;;;;;5024885;28;20194;-73
2022/04/05 09:16:07;;;;;;;16.33;3.30;;;12.70;99.90;;;;;;5025744;28;20041;-72
2022/04/05 09:18:38;;;;;;;23.73;3.75;;;12.80;99.90;;;;;;5009745;28;20070;-70
2022/04/05 09:21:06;;;;;;;17.08;3.30;;;13.00;99.90;;;;;;5025136;28;20281;-73
2022/04/05 09:23:34;;;;;;;16.50;2.33;;;13.20;99.90;;;;;;5024178;28;20056;-71
2022/04/05 09:26:05;;;;;;;13.05;2.03;;;13.40;98.80;;;;;;5021247;28;20261;-72
2022/04/05 09:28:43;;;;;;;12.75;2.90;;;13.50;97.70;;;;;;5005444;28;20034;-69
2022/04/05 09:31:11;;;;;;;11.20;2.40;;;13.40;98.10;;;;;;5021550;28;20038;-69
2022/04/05 09:33:59;;;;;;;18.65;3.38;;;13.40;97.90;;;;;;5007070;28;20101;-73
2022/04/05 09:36:33;;;;;;;13.95;2.22;;;13.50;98.50;;;;;;5025618;28;20308;-71
2022/04/05 09:39:20;;;;;;;15.50;2.55;;;13.60;98.00;;;;;;5008360;28;20025;-71
2022/04/05 09:41:51;;;;;;;12.38;2.60;;;13.70;97.90;;;;;;5008482;28;20325;-71
2022/04/05 09:44:25;;;;;;;21.58;3.35;;;13.70;97.80;;;;;;5008584;28;20029;-71
2022/04/05 09:47:10;;;;;;;14.02;2.10;;;13.50;97.30;;;;;;5025908;28;20309;-70
2022/04/05 09:49:39;;;;;;;13.50;2.95;;;13.40;97.60;;;;;;5024126;28;20136;-72
2022/04/05 09:52:30;;;;;;;15.45;2.17;;;13.50;98.10;;;;;;5003782;28;20042;-73
2022/04/05 09:55:09;;;;;;;16.13;3.05;;;13.50;98.20;;;;;;5008599;28;20065;-72
2022/04/05 09:57:36;;;;;;;15.35;2.40;;;13.50;97.40;;;;;;5004446;28;20061;-72
2022/04/05 10:00:19;;;;;;;13.80;2.55;;;13.70;98.50;;;;;;5023050;28;20081;-72
2022/04/05 10:03:01;;;;;;;13.57;2.10;;;13.80;98.30;;;;;;4988851;28;20030;-72
2022/04/05 10:05:30;;;;;;;13.45;2.50;;;13.90;98.10;;;;;;5004703;28;20297;-71
2022/04/05 10:07:56;;;;;;;19.58;3.20;;;14.10;98.20;;;;;;5004623;28;20092;-72
2022/04/05 10:10:23;;;;;;;13.30;2.97;;;14.20;97.70;;;;;;5005548;28;20080;-72
2022/04/05 10:12:50;;;;;;;17.33;3.22;;;14.20;97.40;;;;;;5004376;28;20309;-70
2022/04/05 10:15:16;;;;;;;19.00;3.15;;;14.10;98.20;;;;;;5006053;28;20064;-69
2022/04/05 10:17:45;;;;;;;14.63;3.22;;;13.90;98.60;;;;;;5006164;28;20023;-70
2022/04/05 10:20:12;;;;;;;15.25;3.10;;;13.80;98.80;;;;;;5023476;28;20320;-72
2022/04/05 10:22:41;;;;;;;18.17;3.00;;;13.70;99.20;;;;;;5023710;28;20018;-70
2022/04/05 10:25:08;;;;;;;16.65;2.78;;;13.80;99.90;;;;;;5024581;28;20025;-72
2022/04/05 10:27:35;;;;;;;21.80;3.53;;;13.90;99.40;;;;;;5024883;28;20030;-72
2022/04/05 10:30:24;;;;;;;18.95;3.78;;;13.80;99.50;;;;;;5007622;28;20157;-75
2022/04/05 10:33:17;;;;;;;23.80;4.05;;;13.90;99.40;;;;;;5024347;28;20089;-69
2022/04/05 10:35:50;;;;;;;24.63;3.38;;;14.00;99.10;;;;;;5024506;28;20076;-71
2022/04/05 10:38:18;;;;;;;24.65;3.42;;;13.90;99.00;;;;;;5024108;28;20033;-73
2022/04/05 10:41:24;;;;;;;16.95;3.22;;;13.80;98.80;;;;;;5006588;28;20032;-77
2022/04/05 10:44:22;;;;;;;21.65;2.97;;;13.80;99.50;;;;;;5013139;28;20316;-71
2022/04/05 10:47:01;;;;;;;19.45;2.75;;;13.80;99.40;;;;;;5024400;28;20084;-71
2022/04/05 10:49:44;;;;;;;21.02;4.00;;;13.90;99.30;;;;;;5023520;28;20241;-71
2022/04/05 10:52:32;;;;;;;16.17;3.13;;;13.90;98.60;;;;;;4991296;28;20018;-73
2022/04/05 10:55:11;;;;;;;20.60;3.40;;;13.70;99.30;;;;;;5026913;28;20094;-70
2022/04/05 10:57:38;;;;;;;16.63;2.42;;;13.70;98.90;;;;;;5007292;28;20018;-70
2022/04/05 11:00:28;;;;;;;21.85;3.63;;;13.70;98.60;;;;;;5023169;28;20022;-72
2022/04/05 11:03:11;;;;;;;16.23;2.33;;;13.50;98.80;;;;;;5023276;28;20029;-71
2022/04/05 11:05:38;;;;;;;16.30;2.28;;;13.40;98.50;;;;;;5039573;28;20097;-71
2022/04/05 11:08:11;;;;;;;17.88;2.33;;;13.30;98.90;;;;;;5007239;28;20101;-69
2022/04/05 11:10:45;;;;;;;11.52;2.17;;;13.50;99.00;;;;;;5007200;28;20022;-70
2022/04/05 11:13:14;;;;;;;22.65;2.70;;;13.70;98.30;;;;;;5006538;28;20018;-69
2022/04/05 11:15:53;;;;;;;11.63;2.15;;;13.80;98.30;;;;;;5003040;28;20022;-70
2022/04/05 11:18:23;;;;;;;13.45;2.35;;;13.90;97.80;;;;;;5012377;28;20264;-70
2022/04/05 11:20:51;;;;;;;20.50;2.67;;;13.90;98.10;;;;;;5023015;28;20045;-72
2022/04/05 11:23:19;;;;;;;20.13;2.53;;;13.90;97.90;;;;;;5022489;28;20354;-73
2022/04/05 11:25:46;;;;;;;17.15;2.15;;;13.80;98.20;;;;;;5024475;28;20050;-72
2022/04/05 11:28:21;;;;;;;23.73;3.90;;;13.70;98.40;;;;;;5021879;28;20038;-70
2022/04/05 11:31:02;;;;;;;12.40;2.25;;;13.70;98.50;;;;;;5022720;28;20085;-72
2022/04/05 11:33:39;;;;;;;14.77;2.17;;;14.00;98.20;;;;;;5022615;28;20018;-71
2022/04/05 11:36:08;;;;;;;15.88;2.83;;;14.10;98.20;;;;;;5003345;28;20097;-72
2022/04/05 11:38:42;;;;;;;25.92;3.03;;;14.20;98.20;;;;;;5002907;28;20022;-71
2022/04/05 11:41:21;;;;;;;19.50;2.63;;;14.20;97.90;;;;;;5005789;28;20029;-73
2022/04/05 11:43:51;;;;;;;18.85;2.83;;;14.00;97.90;;;;;;5020466;28;20049;-70
2022/04/05 11:46:21;;;;;;;18.15;2.40;;;13.90;98.00;;;;;;5014004;28;20087;-70
2022/04/05 11:48:49;;;;;;;20.10;2.58;;;13.80;97.60;;;;;;5003464;28;20214;-73
2022/04/05 11:51:19;;;;;;;22.25;2.70;;;13.70;98.40;;;;;;5021891;28;20513;-73
2022/04/05 11:53:46;;;;;;;16.90;2.40;;;13.80;98.10;;;;;;5004178;28;20038;-70
2022/04/05 11:56:20;;;;;;;14.30;2.03;;;13.80;98.50;;;;;;4986954;28;20140;-69
2022/04/05 11:58:50;;;;;;;13.77;2.80;;;13.70;98.10;;;;;;4986600;28;20026;-72
2022/04/05 12:01:34;;;;;;;21.02;2.45;;;13.50;98.80;;;;;;5013918;28;20344;-72
2022/04/05 12:04:10;;;;;;;18.27;2.88;;;13.40;98.40;;;;;;5006351;28;20022;-70
2022/04/05 12:06:39;;;;;;;18.55;2.72;;;13.50;99.00;;;;;;5022771;28;20300;-73
2022/04/05 12:09:07;;;;;;;15.07;2.47;;;13.50;98.30;;;;;;5005556;28;20041;-71
2022/04/05 12:11:36;;;;;;;14.02;2.53;;;13.50;98.70;;;;;;5005750;28;20380;-72
2022/04/05 12:14:05;;;;;;;16.58;2.42;;;13.70;98.80;;;;;;5018268;28;20026;-71
2022/04/05 12:16:55;;;;;;;13.45;2.13;;;13.80;98.30;;;;;;5002733;28;20304;-72
2022/04/05 12:19:39;;;;;;;15.15;2.50;;;13.90;98.10;;;;;;5004496;28;20088;-70
2022/04/05 12:22:07;;;;;;;21.02;2.20;;;14.00;98.10;;;;;;5002873;28;20033;-73
2022/04/05 12:24:42;;;;;;;17.67;2.42;;;14.20;97.60;;;;;;5002337;28;20386;-70
2022/04/05 12:27:08;;;;;;;13.88;2.60;;;14.20;97.60;;;;;;5022053;28;20025;-72
2022/04/05 12:29:39;;;;;;;16.75;2.33;;;14.20;97.80;;;;;;5022330;28;20079;-71
2022/04/05 12:32:07;;;;;;;15.57;2.30;;;14.20;97.30;;;;;;5022878;28;20033;-70
2022/04/05 12:34:33;;;;;;;16.55;2.20;;;14.10;97.00;;;;;;5005070;28;20259;-70
2022/04/05 12:37:02;;;;;;;20.92;2.70;;;13.90;97.80;;;;;;5022889;28;20036;-72
2022/04/05 12:39:29;;;;;;;10.75;1.70;;;13.90;97.40;;;;;;5021769;28;20021;-72
2022/04/05 12:42:01;;;;;;;15.68;3.80;;;13.70;97.60;;;;;;5003860;28;20029;-68